createdAt,value
2022-10-10T00:01:39.486Z,0
2022-10-10T00:07:02.372Z,0
2022-10-10T00:12:24.708Z,0
2022-10-10T00:17:47.452Z,0
2022-10-10T00:23:10.023Z,0
2022-10-10T00:28:32.754Z,0
2022-10-10T00:33:56.532Z,0
2022-10-10T00:39:19.149Z,0
2022-10-10T00:44:41.723Z,0
2022-10-10T00:50:04.392Z,0
2022-10-10T00:55:26.819Z,0
2022-10-10T01:00:49.382Z,0
2022-10-10T01:06:11.862Z,0
2022-10-10T01:11:35.152Z,0
2022-10-10T01:16:57.585Z,0
2022-10-10T01:22:20.036Z,0
2022-10-10T01:27:42.517Z,0
2022-10-10T01:33:04.762Z,0
2022-10-10T01:38:27.870Z,0
2022-10-10T01:43:50.423Z,0
2022-10-10T01:49:12.979Z,0
2022-10-10T01:59:37.832Z,0
2022-10-10T02:05:00.161Z,0
2022-10-10T02:10:22.600Z,0
2022-10-10T02:15:44.982Z,0
2022-10-10T02:21:07.761Z,0
2022-10-10T02:26:37.803Z,0
2022-10-10T02:32:00.342Z,0
2022-10-10T02:37:22.765Z,0
2022-10-10T02:42:45.487Z,0
2022-10-10T02:48:07.808Z,0
2022-10-10T02:53:30.407Z,0
2022-10-10T02:58:52.874Z,0
2022-10-10T03:04:15.349Z,0
2022-10-10T03:09:38.137Z,0
2022-10-10T03:15:00.561Z,0
2022-10-10T03:20:23.247Z,0
2022-10-10T03:25:45.917Z,0
2022-10-10T03:31:08.605Z,0
2022-10-10T03:36:31.173Z,0
2022-10-10T03:47:16.257Z,0
2022-10-10T03:52:39.282Z,0
2022-10-10T03:58:01.798Z,0
2022-10-10T04:03:24.449Z,0
2022-10-10T04:08:47.021Z,0
2022-10-10T04:14:09.713Z,0
2022-10-10T04:19:32.205Z,0
2022-10-10T04:24:54.585Z,0
2022-10-10T04:30:17.319Z,0
2022-10-10T04:35:39.748Z,0
2022-10-10T04:41:02.324Z,0
2022-10-10T04:46:25.150Z,0
2022-10-10T04:51:47.592Z,0
2022-10-10T04:57:10.029Z,0
2022-10-10T05:02:32.486Z,0
2022-10-10T05:07:55.732Z,0
2022-10-10T05:13:18.304Z,0
2022-10-10T05:18:41.557Z,0
2022-10-10T05:29:27.008Z,0
2022-10-10T05:34:49.350Z,0
2022-10-10T05:40:11.964Z,0.1
2022-10-10T05:45:34.514Z,0.1
2022-10-10T05:50:56.933Z,0.1
2022-10-10T05:56:19.932Z,0.1
2022-10-10T06:01:42.576Z,0.1
2022-10-10T06:07:05.181Z,0.2
2022-10-10T06:12:28.045Z,0.2
2022-10-10T06:17:59.843Z,0.3
2022-10-10T06:23:22.656Z,0.3
2022-10-10T06:28:45.276Z,0.3
2022-10-10T06:34:08.570Z,0.4
2022-10-10T06:39:31.762Z,0.4
2022-10-10T06:44:54.672Z,0.4
2022-10-10T06:50:17.479Z,0.3
2022-10-10T06:55:40.464Z,0.4
2022-10-10T07:01:03.289Z,0.4
2022-10-10T07:11:28.473Z,0.3
2022-10-10T07:16:51.748Z,0.3
2022-10-10T07:22:14.449Z,0.4
2022-10-10T07:27:37.171Z,0.4
2022-10-10T07:33:00.281Z,0.5
2022-10-10T07:38:23.361Z,0.7
2022-10-10T07:43:46.793Z,0.5
2022-10-10T07:49:09.753Z,1.2
2022-10-10T07:54:32.723Z,4.2
2022-10-10T07:59:55.504Z,1
2022-10-10T08:05:18.654Z,4.7
2022-10-10T08:10:41.904Z,2.1
2022-10-10T08:16:04.475Z,2.5
2022-10-10T08:21:28.276Z,5
2022-10-10T08:26:51.701Z,4.4
2022-10-10T08:32:15.155Z,3.9
2022-10-10T08:42:47.980Z,2
2022-10-10T08:48:16.743Z,1.7
2022-10-10T08:53:40.392Z,3.5
2022-10-10T08:59:03.284Z,4.4
2022-10-10T09:04:45.091Z,4.6
2022-10-10T09:10:07.879Z,4.6
2022-10-10T09:15:30.835Z,5.1
2022-10-10T09:20:53.659Z,3.6
2022-10-10T09:26:16.559Z,4.8
2022-10-10T09:32:17.466Z,3.8
2022-10-10T09:37:47.890Z,3.8
2022-10-10T09:43:11.272Z,4.6
2022-10-10T09:48:46.095Z,5.1
2022-10-10T09:54:09.037Z,5.2
2022-10-10T09:59:35.894Z,5
2022-10-10T10:05:01.447Z,5.6
2022-10-10T10:10:23.682Z,3.3
2022-10-10T10:15:52.050Z,5.1
2022-10-10T10:21:15.784Z,4.5
2022-10-10T10:26:38.176Z,4.7
2022-10-10T10:32:00.292Z,4
2022-10-10T10:37:22.776Z,4.5
2022-10-10T10:42:45.420Z,3.2
2022-10-10T10:48:24.072Z,2.5
2022-10-10T10:53:47.110Z,3
2022-10-10T10:59:31.759Z,2.3
2022-10-10T11:07:17.635Z,2.5
2022-10-10T11:12:46.141Z,2.3
2022-10-10T11:18:08.772Z,2.6
2022-10-10T11:23:34.055Z,2.8
2022-10-10T11:28:58.692Z,2.3
2022-10-10T11:34:21.639Z,2.2
2022-10-10T11:39:44.280Z,1.9
2022-10-10T11:45:06.447Z,1.9
2022-10-10T11:50:31.992Z,2.2
2022-10-10T11:55:55.045Z,3.8
2022-10-10T12:01:17.130Z,2
2022-10-10T12:06:42.907Z,1.9
2022-10-10T12:12:06.121Z,2.2
2022-10-10T12:17:31.147Z,2.2
2022-10-10T12:22:53.823Z,2.1
2022-10-10T12:28:54.221Z,4
2022-10-10T12:34:17.985Z,2.6
2022-10-10T12:39:43.276Z,2.8
2022-10-10T12:45:05.509Z,1.8
2022-10-10T12:50:27.280Z,1.9
2022-10-10T12:55:50.096Z,2.3
2022-10-10T13:01:12.990Z,1.9
2022-10-10T13:06:35.701Z,1.9
2022-10-10T13:11:58.308Z,3.2
2022-10-10T13:17:22.702Z,2.7
2022-10-10T13:22:47.256Z,4.5
2022-10-10T13:28:08.565Z,1.7
2022-10-10T13:38:41.494Z,1
2022-10-10T13:44:03.375Z,0.7
2022-10-10T13:49:25.416Z,0.6
2022-10-10T14:00:10.591Z,0.5
2022-10-10T14:05:35.806Z,0.4
2022-10-10T14:10:59.517Z,0.3
2022-10-10T14:16:24.336Z,0.2
2022-10-10T14:21:51.885Z,0.2
2022-10-10T14:27:17.160Z,0.3
2022-10-10T14:32:39.793Z,0.3
2022-10-10T14:38:02.364Z,0.4
2022-10-10T14:43:24.951Z,0.3
2022-10-10T14:54:17.202Z,0.4
2022-10-10T14:59:45.834Z,0.7
2022-10-10T15:05:12.854Z,0.6
2022-10-10T15:10:35.598Z,0.5
2022-10-10T15:15:58.714Z,0.4
2022-10-10T15:21:24.010Z,0.2
2022-10-10T15:26:46.405Z,0.3
2022-10-10T15:32:16.564Z,0.2
2022-10-10T15:37:38.843Z,0.2
2022-10-10T15:43:01.370Z,0.2
2022-10-10T15:48:23.609Z,0.3
2022-10-10T15:53:46.089Z,0.3
2022-10-10T15:59:09.018Z,0.3
2022-10-10T16:04:31.479Z,0.2
2022-10-10T16:09:53.985Z,0.2
2022-10-10T16:15:16.578Z,0.1
2022-10-10T16:20:41.402Z,0.1
2022-10-10T16:26:04.042Z,0.1
2022-10-10T16:31:28.222Z,0.1
2022-10-10T16:36:50.960Z,0.1
2022-10-10T16:42:16.437Z,0.1
2022-10-10T16:47:44.453Z,0
2022-10-10T16:53:06.925Z,0
2022-10-10T16:58:29.342Z,0
2022-10-10T17:03:52.031Z,0
2022-10-10T17:09:21.881Z,0
2022-10-10T17:14:47.435Z,0
2022-10-10T17:20:10.029Z,0
2022-10-10T17:25:32.314Z,0
2022-10-10T17:36:19.416Z,0
2022-10-10T17:41:42.287Z,0
2022-10-10T17:47:07.894Z,0
2022-10-10T17:52:30.359Z,0
2022-10-10T17:57:52.817Z,0
2022-10-10T18:03:20.647Z,0
2022-10-10T18:08:55.350Z,0
2022-10-10T18:14:18.012Z,0
2022-10-10T18:19:40.629Z,0
2022-10-10T18:25:03.275Z,0
2022-10-10T18:31:43.887Z,0
2022-10-10T18:37:05.994Z,0
2022-10-10T18:52:37.287Z,0
2022-10-10T18:57:59.753Z,0
2022-10-10T19:03:22.297Z,0
2022-10-10T19:08:45.137Z,0
2022-10-10T19:25:23.885Z,0
2022-10-10T19:30:49.834Z,0
2022-10-10T19:36:12.339Z,0
2022-10-10T19:41:35.337Z,0
2022-10-10T19:52:27.075Z,0
2022-10-10T19:57:52.809Z,0
2022-10-10T20:03:21.822Z,0
2022-10-10T20:08:44.323Z,0
2022-10-10T20:14:10.030Z,0
2022-10-10T20:19:55.927Z,0
2022-10-10T20:25:18.641Z,0
2022-10-10T20:30:44.178Z,0
2022-10-10T20:36:09.322Z,0
2022-10-10T20:41:32.436Z,0
2022-10-10T20:46:57.273Z,0
2022-10-10T20:52:27.780Z,0
2022-10-10T20:57:49.827Z,0
2022-10-10T21:03:12.639Z,0
2022-10-10T21:08:35.235Z,0
2022-10-10T21:14:03.566Z,0
2022-10-10T21:19:26.159Z,0
2022-10-10T21:24:48.538Z,0
2022-10-10T21:30:14.943Z,0
2022-10-10T21:35:37.565Z,0
2022-10-10T21:41:00.235Z,0
2022-10-10T21:46:23.743Z,0
2022-10-10T21:51:47.352Z,0
2022-10-10T21:57:12.600Z,0
2022-10-10T22:02:34.860Z,0
2022-10-10T22:08:05.007Z,0
2022-10-10T22:13:27.517Z,0
2022-10-10T22:19:03.089Z,0
2022-10-10T22:24:25.471Z,0
2022-10-10T22:29:48.023Z,0
2022-10-10T22:35:37.587Z,0
2022-10-10T22:41:03.732Z,0
2022-10-10T22:51:48.724Z,0
2022-10-10T22:57:11.027Z,0
2022-10-10T23:02:36.284Z,0
2022-10-10T23:07:58.945Z,0
2022-10-10T23:13:22.151Z,0
2022-10-10T23:18:45.361Z,0
2022-10-10T23:24:15.114Z,0
2022-10-10T23:29:37.566Z,0
2022-10-10T23:34:59.819Z,0
2022-10-10T23:40:22.794Z,0
2022-10-10T23:45:45.054Z,0
2022-10-10T23:51:07.604Z,0
2022-10-10T23:56:34.144Z,0
